createdAt,value
2022-11-03T00:00:11.485Z,14.68
2022-11-03T00:02:44.487Z,14.76
2022-11-03T00:05:32.876Z,14.76
2022-11-03T00:08:06.011Z,14.93
2022-11-03T00:10:35.910Z,14.90
2022-11-03T00:13:07.992Z,14.99
2022-11-03T00:15:38.989Z,15.02
2022-11-03T00:18:10.985Z,14.93
2022-11-03T00:20:42.024Z,14.79
2022-11-03T00:23:17.342Z,14.59
2022-11-03T00:25:46.760Z,15.01
2022-11-03T00:28:20.673Z,14.91
2022-11-03T00:30:51.646Z,15.02
2022-11-03T00:33:27.545Z,15.07
2022-11-03T00:36:02.539Z,15.08
2022-11-03T00:38:33.864Z,15.40
2022-11-03T00:41:06.102Z,15.17
2022-11-03T00:43:37.660Z,15.23
2022-11-03T00:46:09.714Z,15.60
2022-11-03T00:48:43.241Z,15.44
2022-11-03T00:51:28.036Z,15.44
2022-11-03T00:54:04.203Z,15.56
2022-11-03T00:56:37.867Z,15.54
2022-11-03T00:59:09.911Z,15.35
2022-11-03T01:01:47.201Z,15.39
2022-11-03T01:04:38.171Z,15.58
2022-11-03T01:07:08.441Z,15.10
2022-11-03T01:09:41.643Z,15.12
2022-11-03T01:12:19.144Z,15.03
2022-11-03T01:14:52.337Z,14.83
2022-11-03T01:17:24.988Z,14.78
2022-11-03T01:19:56.436Z,14.92
2022-11-03T01:22:25.944Z,14.94
2022-11-03T01:24:56.895Z,14.83
2022-11-03T01:27:26.504Z,14.95
2022-11-03T01:29:57.501Z,14.86
2022-11-03T01:32:27.095Z,14.43
2022-11-03T01:35:00.394Z,14.33
2022-11-03T01:37:30.520Z,14.35
2022-11-03T01:40:05.066Z,14.34
2022-11-03T01:42:34.572Z,14.38
2022-11-03T01:45:03.944Z,14.25
2022-11-03T01:47:36.816Z,14.47
2022-11-03T01:50:11.841Z,14.26
2022-11-03T01:52:53.176Z,13.99
2022-11-03T01:55:31.272Z,14.18
2022-11-03T01:58:08.901Z,13.89
2022-11-03T02:00:43.314Z,14.29
2022-11-03T02:03:14.904Z,13.67
2022-11-03T02:05:47.899Z,13.85
2022-11-03T02:08:28.947Z,13.78
2022-11-03T02:10:59.911Z,13.87
2022-11-03T02:13:32.924Z,13.72
2022-11-03T02:16:05.609Z,13.79
2022-11-03T02:18:35.570Z,13.84
2022-11-03T02:21:50.771Z,13.84
2022-11-03T02:24:51.268Z,13.82
2022-11-03T02:27:24.749Z,13.72
2022-11-03T02:29:55.294Z,13.63
2022-11-03T02:32:33.284Z,13.26
2022-11-03T02:35:20.207Z,13.15
2022-11-03T02:37:55.880Z,13.06
2022-11-03T02:40:34.583Z,13.21
2022-11-03T02:43:04.425Z,13.11
2022-11-03T02:45:33.016Z,13.16
2022-11-03T02:48:03.062Z,13.24
2022-11-03T02:50:33.578Z,13.20
2022-11-03T02:53:02.365Z,13.03
2022-11-03T02:55:48.597Z,13.14
2022-11-03T02:58:26.716Z,13.35
2022-11-03T03:01:14.998Z,13.45
2022-11-03T03:03:50.424Z,13.56
2022-11-03T03:06:29.463Z,13.44
2022-11-03T03:09:02.175Z,13.19
2022-11-03T03:11:39.981Z,13.13
2022-11-03T03:14:15.051Z,13.15
2022-11-03T03:16:49.349Z,12.92
2022-11-03T03:19:49.428Z,12.93
2022-11-03T03:22:25.294Z,12.68
2022-11-03T03:25:07.709Z,12.47
2022-11-03T03:27:40.150Z,12.70
2022-11-03T03:30:10.276Z,12.66
2022-11-03T03:32:41.428Z,12.72
2022-11-03T03:35:20.682Z,12.45
2022-11-03T03:37:52.082Z,12.46
2022-11-03T03:40:25.692Z,12.50
2022-11-03T03:42:57.056Z,12.16
2022-11-03T03:45:26.948Z,12.08
2022-11-03T03:47:57.763Z,12.34
2022-11-03T03:50:29.040Z,12.14
2022-11-03T03:53:06.111Z,11.74
2022-11-03T03:55:37.956Z,12.06
2022-11-03T03:58:07.696Z,11.90
2022-11-03T04:00:40.303Z,12.03
2022-11-03T04:03:21.774Z,11.92
2022-11-03T04:05:50.119Z,11.78
2022-11-03T04:08:20.110Z,12.00
2022-11-03T04:11:07.534Z,12.18
2022-11-03T04:13:55.720Z,11.84
2022-11-03T04:16:42.619Z,12.25
2022-11-03T04:19:30.598Z,12.14
2022-11-03T04:22:16.740Z,12.27
2022-11-03T04:24:51.938Z,12.01
2022-11-03T04:27:41.269Z,12.06
2022-11-03T04:30:09.482Z,11.93
2022-11-03T04:32:38.416Z,11.86
2022-11-03T04:35:22.672Z,11.82
2022-11-03T04:37:59.278Z,11.80
2022-11-03T04:40:28.249Z,11.73
2022-11-03T04:42:57.908Z,11.80
2022-11-03T04:45:30.961Z,11.55
2022-11-03T04:48:02.243Z,11.43
2022-11-03T04:50:30.905Z,11.65
2022-11-03T04:53:00.586Z,11.69
2022-11-03T04:55:29.363Z,11.74
2022-11-03T04:57:59.054Z,11.67
2022-11-03T05:00:28.710Z,11.56
2022-11-03T05:02:56.961Z,11.25
2022-11-03T05:05:26.584Z,11.22
2022-11-03T05:07:57.384Z,11.33
2022-11-03T05:10:27.875Z,11.01
2022-11-03T05:12:57.128Z,10.94
2022-11-03T05:15:31.946Z,11.03
2022-11-03T05:18:02.114Z,11.20
2022-11-03T05:20:50.785Z,11.06
2022-11-03T05:23:20.402Z,11.14
2022-11-03T05:25:51.236Z,11.22
2022-11-03T05:28:31.709Z,11.44
2022-11-03T05:31:00.395Z,11.43
2022-11-03T05:33:34.917Z,11.52
2022-11-03T05:36:15.586Z,11.48
2022-11-03T05:38:44.636Z,11.47
2022-11-03T05:41:20.354Z,11.43
2022-11-03T05:44:02.854Z,11.46
2022-11-03T05:46:32.605Z,11.52
2022-11-03T05:49:02.865Z,11.57
2022-11-03T05:51:35.311Z,11.51
2022-11-03T05:54:06.030Z,11.61
2022-11-03T05:56:35.337Z,11.70
2022-11-03T05:59:05.325Z,11.53
2022-11-03T06:01:35.872Z,11.70
2022-11-03T06:04:28.287Z,11.46
2022-11-03T06:07:00.935Z,11.50
2022-11-03T06:09:30.362Z,11.58
2022-11-03T06:12:03.799Z,11.68
2022-11-03T06:14:40.586Z,11.57
2022-11-03T06:17:36.209Z,12.02
2022-11-03T06:20:29.925Z,11.87
2022-11-03T06:23:33.029Z,11.81
2022-11-03T06:26:19.430Z,12.13
2022-11-03T06:28:56.370Z,11.88
2022-11-03T06:31:56.038Z,11.99
2022-11-03T06:34:52.756Z,12.40
2022-11-03T06:44:02.628Z,12.57
2022-11-03T06:46:51.496Z,12.76
2022-11-03T06:49:46.438Z,12.64
2022-11-03T06:52:40.375Z,12.75
2022-11-03T06:55:53.941Z,12.59
2022-11-03T06:58:29.919Z,12.84
2022-11-03T07:01:38.925Z,12.79
2022-11-03T07:04:21.061Z,13.22
2022-11-03T07:08:31.302Z,13.53
2022-11-03T07:11:30.376Z,14.10
2022-11-03T07:14:39.649Z,14.19
2022-11-03T07:17:35.848Z,14.24
2022-11-03T07:20:36.578Z,14.34
2022-11-03T07:23:22.567Z,14.31
2022-11-03T07:26:00.634Z,14.42
2022-11-03T07:28:36.108Z,14.45
2022-11-03T07:31:17.239Z,14.59
2022-11-03T07:33:46.067Z,14.68
2022-11-03T07:36:22.450Z,14.57
2022-11-03T07:38:56.803Z,14.58
2022-11-03T07:41:58.135Z,14.63
2022-11-03T07:44:29.747Z,14.87
2022-11-03T07:47:00.701Z,14.79
2022-11-03T07:49:30.687Z,14.92
2022-11-03T07:52:01.046Z,15.05
2022-11-03T07:54:32.198Z,14.89
2022-11-03T07:57:04.473Z,14.89
2022-11-03T07:59:39.108Z,15.07
2022-11-03T08:02:36.449Z,15.00
2022-11-03T08:05:08.115Z,14.78
2022-11-03T08:07:42.318Z,14.52
2022-11-03T08:10:15.368Z,14.79
2022-11-03T08:13:01.500Z,15.03
2022-11-03T08:15:38.805Z,15.06
2022-11-03T08:20:38.339Z,14.55
2022-11-03T08:23:25.747Z,14.79
2022-11-03T08:25:54.539Z,14.96
2022-11-03T08:28:23.358Z,14.99
2022-11-03T08:30:51.386Z,14.83
2022-11-03T08:33:19.726Z,15.08
2022-11-03T08:35:48.905Z,15.17
2022-11-03T08:38:16.988Z,15.45
2022-11-03T08:40:50.082Z,15.33
2022-11-03T08:43:21.023Z,15.15
2022-11-03T08:45:53.742Z,15.22
2022-11-03T08:48:27.375Z,15.31
2022-11-03T08:50:58.547Z,15.20
2022-11-03T08:53:27.851Z,15.51
2022-11-03T08:55:56.608Z,15.32
2022-11-03T08:58:25.214Z,15.22
2022-11-03T09:00:54.562Z,15.52
2022-11-03T09:03:22.731Z,15.34
2022-11-03T09:05:52.001Z,15.52
2022-11-03T09:11:10.596Z,15.16
2022-11-03T09:13:39.804Z,15.24
2022-11-03T09:16:08.482Z,15.19
2022-11-03T09:18:36.651Z,15.63
2022-11-03T09:21:05.139Z,15.51
2022-11-03T09:23:33.561Z,15.57
2022-11-03T09:26:01.696Z,15.62
2022-11-03T09:28:30.468Z,15.28
2022-11-03T09:30:59.552Z,15.38
2022-11-03T09:33:31.075Z,15.31
2022-11-03T09:36:02.694Z,15.47
2022-11-03T09:38:30.628Z,15.61
2022-11-03T09:40:59.048Z,15.63
2022-11-03T09:43:30.322Z,15.61
2022-11-03T09:46:01.127Z,15.55
2022-11-03T09:48:30.570Z,15.63
2022-11-03T09:50:59.500Z,15.57
2022-11-03T09:53:30.896Z,15.90
2022-11-03T09:55:59.477Z,15.68
2022-11-03T09:58:28.044Z,15.68
2022-11-03T10:01:01.447Z,15.92
2022-11-03T10:03:32.476Z,15.64
2022-11-03T10:06:04.181Z,15.47
2022-11-03T10:08:40.298Z,15.45
2022-11-03T10:11:09.657Z,15.63
2022-11-03T10:13:40.646Z,15.63
2022-11-03T10:16:09.403Z,15.74
2022-11-03T10:18:38.161Z,15.72
2022-11-03T10:21:09.421Z,15.56
2022-11-03T10:23:37.612Z,15.38
2022-11-03T10:26:11.692Z,15.38
2022-11-03T10:28:40.752Z,14.67
2022-11-03T10:31:22.449Z,14.94
2022-11-03T10:33:56.118Z,14.94
2022-11-03T10:36:26.968Z,15.14
2022-11-03T10:38:56.905Z,14.95
2022-11-03T10:41:30.100Z,15.07
2022-11-03T10:44:13.599Z,14.89
2022-11-03T10:46:56.426Z,15.12
2022-11-03T10:49:26.406Z,15.21
2022-11-03T10:51:58.044Z,15.17
2022-11-03T10:54:26.569Z,15.18
2022-11-03T10:56:56.120Z,14.92
2022-11-03T10:59:38.721Z,15.16
2022-11-03T11:02:16.423Z,15.16
2022-11-03T11:04:46.760Z,15.23
2022-11-03T11:07:22.048Z,15.16
2022-11-03T11:09:50.974Z,15.02
2022-11-03T11:12:25.991Z,15.05
2022-11-03T11:14:56.500Z,15.00
2022-11-03T11:17:37.158Z,14.93
2022-11-03T11:20:21.683Z,14.80
2022-11-03T11:22:51.492Z,15.16
2022-11-03T11:25:19.601Z,14.90
2022-11-03T11:27:57.922Z,14.69
2022-11-03T11:30:29.792Z,14.96
2022-11-03T11:33:01.922Z,15.08
2022-11-03T11:35:30.315Z,15.11
2022-11-03T11:38:37.302Z,14.87
2022-11-03T11:41:06.030Z,14.67
2022-11-03T11:43:33.862Z,14.97
2022-11-03T11:46:20.901Z,14.76
2022-11-03T11:49:05.085Z,14.95
2022-11-03T11:51:36.762Z,14.91
2022-11-03T11:54:18.857Z,14.77
2022-11-03T11:56:48.961Z,14.79
2022-11-03T11:59:25.158Z,14.65
2022-11-03T12:01:55.988Z,14.97
2022-11-03T12:04:27.233Z,15.01
2022-11-03T12:06:56.481Z,15.04
2022-11-03T12:09:29.537Z,15.00
2022-11-03T12:12:05.245Z,15.12
2022-11-03T12:14:38.511Z,14.93
2022-11-03T12:17:19.010Z,14.86
2022-11-03T12:19:49.097Z,15.26
2022-11-03T12:22:27.044Z,15.03
2022-11-03T12:24:59.070Z,15.19
2022-11-03T12:27:27.217Z,14.81
2022-11-03T12:29:56.688Z,15.14
2022-11-03T12:32:33.991Z,15.27
2022-11-03T12:35:08.631Z,15.18
2022-11-03T12:37:37.487Z,15.39
2022-11-03T12:40:06.830Z,15.59
2022-11-03T12:42:35.364Z,15.45
2022-11-03T12:45:04.996Z,15.70
2022-11-03T12:47:34.728Z,15.45
2022-11-03T12:50:04.815Z,15.61
2022-11-03T12:52:32.995Z,15.37
2022-11-03T12:55:00.879Z,15.41
2022-11-03T12:57:28.664Z,15.44
2022-11-03T12:59:56.696Z,15.36
2022-11-03T13:02:24.679Z,15.60
2022-11-03T13:04:52.466Z,15.60
2022-11-03T13:07:27.776Z,15.64
2022-11-03T13:09:58.334Z,15.78
2022-11-03T13:12:32.836Z,15.66
2022-11-03T13:15:04.309Z,15.75
2022-11-03T13:17:51.828Z,15.62
2022-11-03T13:20:20.099Z,15.47
2022-11-03T13:22:48.549Z,15.42
2022-11-03T13:25:17.886Z,15.31
2022-11-03T13:27:46.413Z,15.58
2022-11-03T13:30:14.684Z,15.39
2022-11-03T13:32:42.563Z,15.45
2022-11-03T13:35:13.649Z,15.23
2022-11-03T13:37:43.208Z,15.28
2022-11-03T13:40:35.570Z,15.46
2022-11-03T13:43:04.675Z,15.40
2022-11-03T13:45:33.123Z,14.97
2022-11-03T13:50:52.129Z,15.31
2022-11-03T13:56:11.397Z,15.31
2022-11-03T14:01:30.304Z,14.94
2022-11-03T14:06:47.400Z,14.79
2022-11-03T14:09:18.440Z,15.08
2022-11-03T14:12:10.487Z,14.74
2022-11-03T14:14:49.325Z,14.64
2022-11-03T14:17:21.769Z,14.80
2022-11-03T14:20:06.053Z,14.70
2022-11-03T14:22:38.510Z,14.59
2022-11-03T14:25:15.888Z,14.23
2022-11-03T14:27:51.338Z,14.47
2022-11-03T14:30:19.611Z,14.44
2022-11-03T14:32:47.838Z,14.43
2022-11-03T14:35:19.717Z,14.55
2022-11-03T14:37:59.225Z,14.81
2022-11-03T14:40:48.492Z,14.89
2022-11-03T14:43:17.388Z,14.68
2022-11-03T14:45:45.802Z,15.07
2022-11-03T14:48:16.328Z,15.10
2022-11-03T14:51:13.603Z,15.12
2022-11-03T14:53:42.440Z,15.04
2022-11-03T14:56:10.116Z,15.25
2022-11-03T14:58:38.067Z,15.18
2022-11-03T15:01:06.350Z,15.27
2022-11-03T15:03:36.106Z,15.34
2022-11-03T15:06:16.776Z,15.13
2022-11-03T15:08:50.766Z,15.26
2022-11-03T15:11:22.129Z,15.30
2022-11-03T15:13:52.633Z,15.47
2022-11-03T15:16:24.205Z,15.11
2022-11-03T15:18:54.893Z,15.15
2022-11-03T15:21:25.695Z,14.76
2022-11-03T15:26:45.828Z,14.33
2022-11-03T15:29:13.667Z,14.56
2022-11-03T15:31:47.236Z,14.23
2022-11-03T15:34:16.594Z,14.05
2022-11-03T15:36:45.491Z,14.19
2022-11-03T15:39:13.669Z,13.91
2022-11-03T15:41:42.189Z,14.12
2022-11-03T15:44:10.185Z,13.99
2022-11-03T15:46:38.095Z,13.85
2022-11-03T15:49:07.029Z,13.75
2022-11-03T15:51:35.026Z,13.57
2022-11-03T15:54:04.112Z,13.59
2022-11-03T15:56:32.296Z,13.60
2022-11-03T15:59:00.443Z,13.39
2022-11-03T16:01:28.296Z,13.19
2022-11-03T16:03:56.413Z,13.25
2022-11-03T16:06:46.526Z,13.11
2022-11-03T16:09:30.088Z,13.27
2022-11-03T16:11:59.023Z,13.15
2022-11-03T16:14:30.419Z,12.95
2022-11-03T16:16:58.984Z,12.91
2022-11-03T16:19:27.452Z,12.74
2022-11-03T16:21:56.576Z,12.62
2022-11-03T16:24:33.387Z,12.55
2022-11-03T16:27:04.935Z,12.79
2022-11-03T16:29:33.019Z,12.66
2022-11-03T16:32:01.582Z,12.91
2022-11-03T16:34:30.443Z,13.06
2022-11-03T16:36:58.535Z,12.82
2022-11-03T16:39:27.027Z,12.83
2022-11-03T16:41:57.305Z,12.80
2022-11-03T16:44:25.699Z,12.68
2022-11-03T16:46:55.318Z,12.83
2022-11-03T16:49:24.351Z,12.83
2022-11-03T16:51:52.870Z,12.82
2022-11-03T16:54:21.219Z,12.70
2022-11-03T16:56:54.524Z,12.91
2022-11-03T16:59:26.992Z,12.59
2022-11-03T17:01:57.512Z,12.67
2022-11-03T17:04:26.265Z,12.93
2022-11-03T17:06:54.316Z,13.03
2022-11-03T17:09:22.764Z,13.09
2022-11-03T17:11:50.973Z,13.02
2022-11-03T17:14:19.366Z,12.81
2022-11-03T17:16:48.821Z,13.10
2022-11-03T17:19:16.948Z,12.89
2022-11-03T17:21:45.873Z,12.67
2022-11-03T17:24:15.175Z,12.98
2022-11-03T17:26:52.897Z,12.66
2022-11-03T17:29:23.556Z,12.80
2022-11-03T17:31:52.858Z,13.06
2022-11-03T17:34:28.624Z,12.71
2022-11-03T17:37:07.926Z,12.68
2022-11-03T17:39:42.105Z,12.81
2022-11-03T17:42:26.748Z,12.99
2022-11-03T17:44:57.774Z,12.80
2022-11-03T17:47:27.510Z,13.11
2022-11-03T17:50:00.683Z,13.03
2022-11-03T17:52:29.654Z,13.15
2022-11-03T17:54:59.544Z,12.97
2022-11-03T17:57:28.541Z,13.07
2022-11-03T17:59:58.815Z,13.25
2022-11-03T18:02:31.568Z,13.42
2022-11-03T18:05:15.464Z,12.84
2022-11-03T18:07:49.249Z,13.00
2022-11-03T18:10:19.476Z,12.99
2022-11-03T18:13:08.085Z,12.97
2022-11-03T18:15:39.748Z,13.12
2022-11-03T18:18:13.702Z,12.82
2022-11-03T18:20:50.354Z,12.66
2022-11-03T18:23:24.545Z,12.57
2022-11-03T18:25:55.584Z,12.72
2022-11-03T18:28:24.049Z,12.86
2022-11-03T18:30:55.186Z,13.03
2022-11-03T18:33:26.783Z,13.33
2022-11-03T18:35:59.784Z,13.23
2022-11-03T18:38:29.750Z,13.05
2022-11-03T18:41:00.981Z,13.07
2022-11-03T18:43:33.269Z,13.07
2022-11-03T18:46:04.027Z,13.18
2022-11-03T18:48:33.320Z,13.12
2022-11-03T18:51:04.208Z,13.10
2022-11-03T18:53:32.449Z,13.23
2022-11-03T18:56:02.631Z,13.50
2022-11-03T18:58:40.644Z,13.48
2022-11-03T19:01:21.050Z,13.30
2022-11-03T19:03:50.512Z,13.56
2022-11-03T19:06:21.385Z,13.76
2022-11-03T19:08:59.029Z,13.78
2022-11-03T19:11:27.887Z,13.90
2022-11-03T19:14:00.320Z,13.88
2022-11-03T19:16:34.820Z,14.04
2022-11-03T19:19:05.221Z,14.03
2022-11-03T19:21:37.394Z,13.74
2022-11-03T19:24:07.652Z,14.08
2022-11-03T19:26:59.860Z,14.00
2022-11-03T19:29:29.366Z,13.76
2022-11-03T19:31:58.932Z,14.04
2022-11-03T19:34:31.839Z,14.00
2022-11-03T19:37:01.908Z,14.00
2022-11-03T19:39:32.299Z,13.94
2022-11-03T19:42:26.157Z,13.81
2022-11-03T19:44:58.653Z,13.82
2022-11-03T19:47:35.561Z,14.06
2022-11-03T19:50:05.916Z,13.88
2022-11-03T19:52:35.866Z,13.95
2022-11-03T19:55:06.250Z,14.07
2022-11-03T19:57:35.033Z,13.99
2022-11-03T20:00:07.473Z,13.76
2022-11-03T20:02:36.095Z,14.17
2022-11-03T20:05:06.065Z,14.00
2022-11-03T20:07:36.081Z,13.99
2022-11-03T20:10:13.363Z,14.24
2022-11-03T20:15:30.162Z,14.25
2022-11-03T20:17:58.746Z,13.74
2022-11-03T20:20:30.673Z,13.84
2022-11-03T20:23:01.058Z,13.85
2022-11-03T20:25:34.224Z,13.84
2022-11-03T20:28:18.154Z,14.08
2022-11-03T20:30:48.148Z,13.82
2022-11-03T20:33:19.934Z,13.83
2022-11-03T20:35:49.792Z,13.85
2022-11-03T20:38:20.827Z,13.59
2022-11-03T20:40:51.602Z,13.89
2022-11-03T20:43:24.540Z,13.82
2022-11-03T20:45:56.919Z,13.92
2022-11-03T20:48:27.182Z,13.74
2022-11-03T20:50:57.064Z,13.91
2022-11-03T20:53:26.879Z,13.80
2022-11-03T20:55:55.804Z,13.73
2022-11-03T20:58:25.848Z,13.60
2022-11-03T21:00:54.654Z,13.82
2022-11-03T21:06:19.651Z,13.90
2022-11-03T21:08:52.602Z,13.85
2022-11-03T21:11:24.140Z,14.06
2022-11-03T21:14:08.637Z,13.74
2022-11-03T21:16:57.159Z,13.90
2022-11-03T21:19:59.477Z,13.70
2022-11-03T21:22:56.417Z,13.81
2022-11-03T21:25:28.113Z,13.89
2022-11-03T21:27:58.921Z,13.70
2022-11-03T21:30:32.397Z,13.66
2022-11-03T21:33:04.541Z,13.99
2022-11-03T21:35:35.057Z,13.61
2022-11-03T21:38:06.701Z,13.66
2022-11-03T21:40:36.893Z,13.76
2022-11-03T21:43:25.426Z,13.78
2022-11-03T21:45:53.679Z,13.91
2022-11-03T21:48:40.785Z,13.74
2022-11-03T21:51:27.259Z,13.73
2022-11-03T21:53:56.706Z,13.97
2022-11-03T21:56:26.809Z,13.95
2022-11-03T21:58:55.503Z,13.86
2022-11-03T22:01:23.692Z,14.02
2022-11-03T22:03:51.870Z,14.06
2022-11-03T22:06:20.447Z,14.09
2022-11-03T22:08:48.205Z,13.79
2022-11-03T22:11:23.077Z,14.32
2022-11-03T22:13:58.414Z,13.86
2022-11-03T22:16:42.171Z,13.94
2022-11-03T22:19:43.551Z,14.01
2022-11-03T22:22:33.110Z,14.00
2022-11-03T22:25:22.823Z,13.89
2022-11-03T22:27:57.068Z,13.74
2022-11-03T22:30:45.158Z,13.77
2022-11-03T22:33:16.408Z,13.66
2022-11-03T22:36:04.757Z,13.91
2022-11-03T22:38:54.904Z,13.75
2022-11-03T22:41:42.858Z,13.79
2022-11-03T22:44:30.466Z,13.66
2022-11-03T22:47:03.028Z,13.94
2022-11-03T22:49:32.826Z,13.63
2022-11-03T22:52:04.661Z,13.44
2022-11-03T22:54:35.805Z,13.59
2022-11-03T22:57:05.521Z,13.80
2022-11-03T22:59:34.580Z,13.70
2022-11-03T23:02:05.368Z,13.54
2022-11-03T23:04:36.593Z,13.55
2022-11-03T23:07:06.573Z,13.62
2022-11-03T23:09:42.195Z,13.30
2022-11-03T23:12:14.344Z,13.61
2022-11-03T23:15:06.735Z,13.45
2022-11-03T23:17:56.138Z,13.66
2022-11-03T23:20:53.083Z,13.37
2022-11-03T23:23:43.187Z,13.49
2022-11-03T23:26:16.724Z,13.61
2022-11-03T23:28:48.531Z,13.42
2022-11-03T23:31:20.501Z,13.21
2022-11-03T23:33:50.855Z,13.33
2022-11-03T23:36:21.222Z,13.22
2022-11-03T23:38:54.944Z,13.07
2022-11-03T23:41:26.839Z,13.34
2022-11-03T23:43:58.176Z,13.07
2022-11-03T23:46:48.712Z,13.36
2022-11-03T23:49:18.711Z,13.14
2022-11-03T23:51:48.509Z,12.98
2022-11-03T23:54:20.686Z,12.97
2022-11-03T23:57:11.279Z,13.25
